Time;durP1;ratioP1;P1;durP2;ratioP2;P2;SDS_P1;SDS_P2;PMS_P1;PMS_P2;Temp;Humidity;BMP_temperature;BMP_pressure;BME280_temperature;BME280_humidity;BME280_pressure;Samples;Min_cycle;Max_cycle;Signal;HPM_P1;HPM_P2
2022/06/08 00:02:26;;;;;;;;;;;22.00;55.60;;;;;;5014504;28;19967;-73
2022/06/08 00:04:51;;;;;;;;;;;21.90;56.20;;;;;;5025101;28;20463;-72
2022/06/08 00:07:17;;;;;;;;;;;21.90;55.40;;;;;;5038070;28;19913;-72
2022/06/08 00:09:42;;;;;;;;;;;22.00;55.60;;;;;;5005802;28;20515;-72
2022/06/08 00:12:08;;;;;;;;;;;22.00;55.60;;;;;;5032374;28;19931;-70
2022/06/08 00:14:33;;;;;;;;;;;21.90;55.20;;;;;;5041683;28;19921;-71
2022/06/08 00:16:59;;;;;;;;;;;21.90;55.30;;;;;;5042377;28;20477;-72
2022/06/08 00:19:24;;;;;;;;;;;21.90;55.30;;;;;;5025265;28;19923;-72
2022/06/08 00:21:50;;;;;;;;;;;21.90;55.20;;;;;;4997925;28;19913;-71
2022/06/08 00:24:15;;;;;;;;;;;21.90;55.30;;;;;;5031764;28;20010;-72
2022/06/08 00:26:41;;;;;;;;;;;21.90;55.20;;;;;;5043531;28;19913;-73
2022/06/08 00:29:06;;;;;;;;;;;21.90;55.40;;;;;;5004336;28;19955;-71
2022/06/08 00:31:32;;;;;;;;;;;21.90;55.20;;;;;;5021222;28;20340;-72
2022/06/08 00:33:57;;;;;;;;;;;21.90;55.40;;;;;;5023072;28;19913;-72
2022/06/08 00:36:23;;;;;;;;;;;21.90;55.30;;;;;;5022234;28;19992;-72
2022/06/08 00:38:48;;;;;;;;;;;21.90;55.00;;;;;;5024928;28;20306;-69
2022/06/08 00:41:13;;;;;;;;;;;21.90;55.10;;;;;;5024399;28;19919;-73
2022/06/08 00:43:39;;;;;;;;;;;21.80;55.40;;;;;;5024537;28;19917;-72
2022/06/08 00:46:05;;;;;;;;;;;21.90;55.10;;;;;;5021459;28;19925;-72
2022/06/08 00:48:31;;;;;;;;;;;21.90;55.10;;;;;;5023605;28;19916;-69
2022/06/08 00:50:57;;;;;;;;;;;21.90;55.20;;;;;;5000025;28;19917;-72
2022/06/08 00:53:29;;;;;;;;;;;21.80;55.20;;;;;;5008149;28;19923;-72
2022/06/08 00:55:54;;;;;;;;;;;21.90;55.10;;;;;;5041214;28;19963;-68
2022/06/08 00:58:23;;;;;;;;;;;21.80;55.10;;;;;;5036914;28;19917;-71
2022/06/08 01:00:49;;;;;;;;;;;21.80;55.20;;;;;;5021492;28;19964;-72
2022/06/08 01:03:15;;;;;;;;;;;21.80;55.20;;;;;;5038576;28;19917;-73
2022/06/08 01:05:55;;;;;;;;;;;21.80;55.20;;;;;;5045235;28;19913;-71
2022/06/08 01:08:27;;;;;;;;;;;21.80;55.20;;;;;;5035060;28;20495;-72
2022/06/08 01:10:53;;;;;;;;;;;21.80;55.20;;;;;;5028176;28;19949;-72
2022/06/08 01:13:20;;;;;;;;;;;21.80;55.10;;;;;;5027887;28;19925;-72
2022/06/08 01:15:45;;;;;;;;;;;21.80;55.00;;;;;;5044426;28;19966;-72
2022/06/08 01:18:11;;;;;;;;;;;21.80;55.40;;;;;;5041545;28;19917;-72
2022/06/08 01:20:42;;;;;;;;;;;21.80;56.00;;;;;;5024833;28;19913;-72
2022/06/08 01:23:08;;;;;;;;;;;21.80;55.40;;;;;;5033430;28;19948;-71
2022/06/08 01:25:35;;;;;;;;;;;21.80;55.40;;;;;;5044194;28;19917;-72
2022/06/08 01:28:04;;;;;;;;;;;21.80;55.20;;;;;;5024075;28;19948;-72
2022/06/08 01:30:29;;;;;;;;;;;21.80;55.40;;;;;;5011061;28;20457;-72
2022/06/08 01:32:54;;;;;;;;;;;21.80;55.30;;;;;;5030325;28;19917;-71
2022/06/08 01:35:32;;;;;;;;;;;21.80;55.40;;;;;;5045526;28;19956;-72
2022/06/08 01:38:09;;;;;;;;;;;21.80;55.20;;;;;;5040805;28;20001;-72
2022/06/08 01:40:38;;;;;;;;;;;21.80;56.10;;;;;;5025824;28;19922;-72
2022/06/08 01:43:25;;;;;;;;;;;21.80;55.40;;;;;;5030978;28;20107;-72
2022/06/08 01:46:09;;;;;;;;;;;21.70;55.30;;;;;;5043824;28;19974;-72
2022/06/08 01:48:37;;;;;;;;;;;21.80;55.40;;;;;;5045427;28;19921;-72
2022/06/08 01:51:11;;;;;;;;;;;21.80;55.10;;;;;;5045394;28;19921;-72
2022/06/08 01:53:51;;;;;;;;;;;21.70;55.30;;;;;;5011121;28;20438;-72
2022/06/08 01:56:20;;;;;;;;;;;21.80;55.40;;;;;;5044869;28;20422;-73
2022/06/08 01:58:51;;;;;;;;;;;21.70;55.40;;;;;;5045243;28;20320;-72
2022/06/08 02:01:22;;;;;;;;;;;21.70;55.30;;;;;;5027846;28;19921;-72
2022/06/08 02:03:48;;;;;;;;;;;21.70;55.50;;;;;;5027415;28;20500;-73
2022/06/08 02:06:39;;;;;;;;;;;21.70;55.20;;;;;;5046233;28;19921;-71
2022/06/08 02:09:10;;;;;;;;;;;21.70;55.30;;;;;;5042742;28;19970;-71
2022/06/08 02:11:39;;;;;;;;;;;21.70;54.90;;;;;;5027048;28;19939;-70
2022/06/08 02:14:10;;;;;;;;;;;21.70;55.20;;;;;;5009760;28;19921;-71
2022/06/08 02:16:36;;;;;;;;;;;21.70;55.30;;;;;;5044191;28;19912;-71
2022/06/08 02:19:03;;;;;;;;;;;21.70;55.00;;;;;;5045468;28;19920;-71
2022/06/08 02:21:29;;;;;;;;;;;21.70;55.10;;;;;;5010918;28;19917;-70
2022/06/08 02:23:55;;;;;;;;;;;21.70;55.30;;;;;;5038669;28;19924;-72
2022/06/08 02:26:26;;;;;;;;;;;21.70;55.30;;;;;;5007674;28;20306;-72
2022/06/08 02:28:54;;;;;;;;;;;21.70;55.30;;;;;;5027156;28;19913;-72
2022/06/08 02:31:23;;;;;;;;;;;21.70;55.50;;;;;;5026963;28;20390;-72
2022/06/08 02:36:53;;;;;;;;;;;21.70;55.40;;;;;;4955013;28;19914;-72
2022/06/08 02:39:42;;;;;;;;;;;21.70;55.50;;;;;;5014632;28;19917;-71
2022/06/08 02:42:09;;;;;;;;;;;21.70;55.30;;;;;;5031077;28;19960;-72
2022/06/08 02:44:35;;;;;;;;;;;21.70;55.50;;;;;;5026153;28;20011;-71
2022/06/08 02:47:04;;;;;;;;;;;21.70;55.30;;;;;;5043242;28;19923;-72
2022/06/08 02:49:32;;;;;;;;;;;21.70;55.20;;;;;;5044213;28;19924;-72
2022/06/08 02:51:58;;;;;;;;;;;21.70;55.50;;;;;;5044305;28;19917;-71
2022/06/08 02:54:24;;;;;;;;;;;21.70;55.40;;;;;;5026935;28;19967;-71
2022/06/08 02:57:02;;;;;;;;;;;21.70;55.50;;;;;;5026986;28;19917;-72
2022/06/08 02:59:30;;;;;;;;;;;21.60;55.40;;;;;;5044864;28;19913;-72
2022/06/08 03:01:59;;;;;;;;;;;21.60;55.50;;;;;;5010660;28;19970;-72
2022/06/08 03:04:26;;;;;;;;;;;21.70;55.60;;;;;;5044506;28;19913;-72
2022/06/08 03:06:52;;;;;;;;;;;21.70;55.50;;;;;;5043882;28;19939;-72
2022/06/08 03:09:18;;;;;;;;;;;21.70;55.40;;;;;;5043835;28;19913;-72
2022/06/08 03:11:45;;;;;;;;;;;21.70;55.40;;;;;;5026466;28;20284;-68
2022/06/08 03:14:12;;;;;;;;;;;21.70;55.60;;;;;;5023845;28;19913;-69
2022/06/08 03:16:41;;;;;;;;;;;21.70;55.40;;;;;;5022338;28;20400;-71
2022/06/08 03:19:07;;;;;;;;;;;21.60;55.30;;;;;;5023519;28;19913;-71
2022/06/08 03:21:32;;;;;;;;;;;21.70;55.70;;;;;;5009354;28;20306;-71
2022/06/08 03:23:59;;;;;;;;;;;21.60;55.60;;;;;;5025907;28;20563;-71
2022/06/08 03:26:24;;;;;;;;;;;21.60;55.50;;;;;;5009477;28;20399;-71
2022/06/08 03:28:50;;;;;;;;;;;21.60;55.60;;;;;;5042882;28;19992;-71
2022/06/08 03:31:16;;;;;;;;;;;21.60;55.50;;;;;;5042893;28;19925;-72
2022/06/08 03:33:41;;;;;;;;;;;21.60;55.30;;;;;;5010700;28;19948;-71
2022/06/08 03:36:07;;;;;;;;;;;21.60;55.50;;;;;;5023936;28;20540;-72
2022/06/08 03:38:32;;;;;;;;;;;21.70;55.50;;;;;;5043180;28;19913;-72
2022/06/08 03:40:58;;;;;;;;;;;21.60;55.50;;;;;;5025672;28;20051;-71
2022/06/08 03:43:23;;;;;;;;;;;21.60;55.50;;;;;;5043181;28;20010;-72
2022/06/08 03:45:50;;;;;;;;;;;21.60;55.60;;;;;;5025028;28;20420;-72
2022/06/08 03:48:15;;;;;;;;;;;21.60;55.60;;;;;;5009438;28;19920;-72
2022/06/08 03:50:41;;;;;;;;;;;21.60;55.50;;;;;;5033253;28;20437;-72
2022/06/08 03:53:08;;;;;;;;;;;21.60;55.60;;;;;;5022387;28;19919;-72
2022/06/08 03:55:33;;;;;;;;;;;21.60;55.50;;;;;;5025322;28;19912;-72
2022/06/08 03:57:59;;;;;;;;;;;21.60;55.60;;;;;;5025292;28;19924;-72
2022/06/08 04:00:24;;;;;;;;;;;21.60;55.50;;;;;;5025002;28;19913;-72
2022/06/08 04:02:50;;;;;;;;;;;21.60;55.60;;;;;;5042881;28;19913;-72
2022/06/08 04:05:16;;;;;;;;;;;21.60;55.60;;;;;;5038742;28;19948;-72
2022/06/08 04:07:42;;;;;;;;;;;21.60;55.50;;;;;;5005575;28;19920;-71
2022/06/08 04:10:07;;;;;;;;;;;21.60;55.60;;;;;;5023757;28;19944;-67
2022/06/08 04:12:33;;;;;;;;;;;21.60;55.60;;;;;;5008946;28;19921;-72
2022/06/08 04:14:58;;;;;;;;;;;21.60;55.50;;;;;;5041517;28;19923;-70
2022/06/08 04:17:23;;;;;;;;;;;21.60;55.50;;;;;;5032559;28;19952;-70
2022/06/08 04:19:49;;;;;;;;;;;21.60;55.60;;;;;;5042676;28;19925;-70
2022/06/08 04:22:15;;;;;;;;;;;21.60;55.50;;;;;;5025711;28;19913;-70
2022/06/08 04:24:40;;;;;;;;;;;21.60;55.50;;;;;;5041770;28;20452;-71
2022/06/08 04:27:06;;;;;;;;;;;21.60;55.60;;;;;;5038321;28;19914;-71
2022/06/08 04:29:31;;;;;;;;;;;21.60;55.60;;;;;;5005144;28;19914;-72
2022/06/08 04:31:57;;;;;;;;;;;21.60;55.70;;;;;;5035661;28;19924;-68
2022/06/08 04:34:23;;;;;;;;;;;21.60;55.60;;;;;;5041874;28;20276;-70
2022/06/08 04:36:48;;;;;;;;;;;21.60;55.60;;;;;;5017010;28;19924;-71
2022/06/08 04:39:14;;;;;;;;;;;21.70;55.70;;;;;;5029279;28;20393;-67
2022/06/08 04:41:39;;;;;;;;;;;21.70;55.60;;;;;;5028188;28;19913;-70
2022/06/08 04:44:05;;;;;;;;;;;21.70;55.50;;;;;;5046328;28;19917;-71
2022/06/08 04:46:30;;;;;;;;;;;21.70;55.30;;;;;;5041611;28;19922;-72
2022/06/08 04:48:55;;;;;;;;;;;21.70;55.40;;;;;;5025245;28;20150;-68
2022/06/08 04:51:21;;;;;;;;;;;21.80;55.40;;;;;;5015570;28;20686;-72
2022/06/08 04:53:47;;;;;;;;;;;21.80;55.20;;;;;;5045238;28;19919;-72
2022/06/08 04:56:13;;;;;;;;;;;21.80;55.10;;;;;;5043644;28;19920;-69
2022/06/08 04:58:38;;;;;;;;;;;21.80;55.20;;;;;;5028110;28;19963;-69
2022/06/08 05:01:04;;;;;;;;;;;21.80;55.20;;;;;;5042630;28;19917;-69
2022/06/08 05:03:30;;;;;;;;;;;21.80;55.20;;;;;;5025158;28;20005;-67
2022/06/08 05:05:56;;;;;;;;;;;21.80;55.10;;;;;;5026309;28;19913;-69
2022/06/08 05:08:23;;;;;;;;;;;21.90;55.10;;;;;;5011979;28;19943;-69
2022/06/08 05:10:50;;;;;;;;;;;21.80;55.10;;;;;;5046282;28;19982;-66
2022/06/08 05:13:15;;;;;;;;;;;21.80;55.20;;;;;;5028991;28;19982;-73
2022/06/08 05:15:41;;;;;;;;;;;21.80;55.10;;;;;;5028469;28;19917;-73
2022/06/08 05:18:07;;;;;;;;;;;21.80;55.20;;;;;;5042197;28;19993;-73
2022/06/08 05:20:32;;;;;;;;;;;21.90;55.40;;;;;;5025227;28;19913;-73
2022/06/08 05:26:02;;;;;;;;;;;21.90;55.20;;;;;;5044352;28;19967;-73
2022/06/08 05:28:27;;;;;;;;;;;21.90;55.70;;;;;;5043492;28;19919;-73
2022/06/08 05:30:56;;;;;;;;;;;21.90;55.20;;;;;;5009358;28;19917;-72
2022/06/08 05:33:22;;;;;;;;;;;21.80;55.10;;;;;;5026842;28;19925;-72
2022/06/08 05:35:47;;;;;;;;;;;21.90;55.40;;;;;;5044436;28;19913;-73
2022/06/08 05:38:12;;;;;;;;;;;21.90;55.20;;;;;;5023748;28;19948;-73
2022/06/08 05:40:38;;;;;;;;;;;21.90;55.20;;;;;;5023573;28;19917;-72
2022/06/08 05:43:07;;;;;;;;;;;21.90;55.20;;;;;;5039047;28;20376;-72
2022/06/08 05:45:33;;;;;;;;;;;21.90;55.30;;;;;;5027622;28;19940;-72
2022/06/08 05:47:58;;;;;;;;;;;21.90;55.40;;;;;;5016913;28;19963;-73
2022/06/08 05:50:24;;;;;;;;;;;21.90;55.10;;;;;;5027348;28;19917;-72
2022/06/08 05:52:49;;;;;;;;;;;21.90;55.50;;;;;;5027354;28;19923;-72
2022/06/08 05:55:15;;;;;;;;;;;21.90;55.70;;;;;;5044236;28;19920;-72
2022/06/08 05:57:41;;;;;;;;;;;21.90;55.60;;;;;;5023662;28;19917;-73
2022/06/08 06:00:07;;;;;;;;;;;21.90;55.20;;;;;;5023892;28;19913;-69
2022/06/08 06:02:32;;;;;;;;;;;21.90;55.60;;;;;;5030211;28;19913;-72
2022/06/08 06:04:58;;;;;;;;;;;21.90;55.60;;;;;;5026703;28;19920;-72
2022/06/08 06:07:25;;;;;;;;;;;21.90;55.60;;;;;;5041963;28;20371;-70
2022/06/08 06:09:50;;;;;;;;;;;21.90;56.50;;;;;;5010622;28;20306;-71
2022/06/08 06:12:16;;;;;;;;;;;21.90;56.40;;;;;;5024260;28;19925;-72
2022/06/08 06:14:41;;;;;;;;;;;21.90;56.70;;;;;;5023066;28;20330;-72
2022/06/08 06:17:06;;;;;;;;;;;21.90;55.90;;;;;;5025783;28;20360;-72
2022/06/08 06:19:32;;;;;;;;;;;21.90;56.60;;;;;;5026879;28;19913;-72
2022/06/08 06:21:57;;;;;;;;;;;21.90;56.20;;;;;;5026585;28;19920;-72
2022/06/08 06:24:23;;;;;;;;;;;21.90;56.10;;;;;;5026190;28;19916;-72
2022/06/08 06:26:48;;;;;;;;;;;21.90;56.30;;;;;;5044351;28;20371;-72
2022/06/08 06:29:14;;;;;;;;;;;21.90;56.10;;;;;;5044559;28;19913;-71
2022/06/08 06:31:43;;;;;;;;;;;21.90;55.70;;;;;;5044243;28;19924;-71
2022/06/08 06:34:10;;;;;;;;;;;21.80;56.00;;;;;;5026143;28;19913;-70
2022/06/08 06:36:35;;;;;;;;;;;21.80;56.00;;;;;;5042788;28;20444;-71
2022/06/08 06:39:01;;;;;;;;;;;21.90;56.00;;;;;;5026442;28;19913;-72
2022/06/08 06:41:27;;;;;;;;;;;21.80;56.10;;;;;;5026553;28;20310;-72
2022/06/08 06:43:52;;;;;;;;;;;21.80;56.00;;;;;;5010460;28;19913;-72
2022/06/08 06:46:18;;;;;;;;;;;21.80;56.00;;;;;;5042792;28;19913;-73
2022/06/08 06:48:43;;;;;;;;;;;21.80;56.20;;;;;;5023420;28;20414;-72
2022/06/08 06:51:09;;;;;;;;;;;21.80;56.00;;;;;;5022839;28;19924;-73
2022/06/08 06:53:34;;;;;;;;;;;21.80;56.20;;;;;;5031257;28;19913;-72
2022/06/08 06:56:00;;;;;;;;;;;21.80;56.20;;;;;;5043809;28;19912;-71
2022/06/08 06:58:25;;;;;;;;;;;21.80;56.20;;;;;;5039730;28;20375;-72
2022/06/08 07:00:51;;;;;;;;;;;21.80;56.10;;;;;;5043617;28;19913;-72
2022/06/08 07:03:16;;;;;;;;;;;21.80;56.20;;;;;;5026496;28;19912;-72
2022/06/08 07:05:42;;;;;;;;;;;21.80;56.10;;;;;;5042620;28;19917;-71
2022/06/08 07:08:07;;;;;;;;;;;21.80;56.30;;;;;;5042860;28;20514;-71
2022/06/08 07:10:33;;;;;;;;;;;21.80;56.20;;;;;;5043760;28;19917;-72
2022/06/08 07:12:58;;;;;;;;;;;21.80;56.00;;;;;;5008774;28;19920;-71
2022/06/08 07:15:23;;;;;;;;;;;21.80;57.00;;;;;;5022572;28;19931;-71
2022/06/08 07:17:49;;;;;;;;;;;21.70;56.80;;;;;;5024266;28;19924;-72
2022/06/08 07:20:15;;;;;;;;;;;21.70;56.50;;;;;;5042910;28;20362;-71
2022/06/08 07:22:40;;;;;;;;;;;21.80;56.60;;;;;;5043483;28;19919;-71
2022/06/08 07:25:06;;;;;;;;;;;21.80;56.40;;;;;;5025567;28;19935;-71
2022/06/08 07:27:32;;;;;;;;;;;21.80;56.60;;;;;;5026187;28;19913;-72
2022/06/08 07:29:57;;;;;;;;;;;21.80;56.70;;;;;;5044084;28;19917;-71
2022/06/08 07:32:23;;;;;;;;;;;21.80;56.40;;;;;;5010333;28;20479;-71
2022/06/08 07:34:48;;;;;;;;;;;21.80;56.40;;;;;;5032925;28;19913;-71
2022/06/08 07:37:13;;;;;;;;;;;21.80;56.40;;;;;;5023911;28;19913;-72
2022/06/08 07:39:39;;;;;;;;;;;21.80;56.30;;;;;;5036321;28;19924;-72
2022/06/08 07:42:05;;;;;;;;;;;21.80;56.20;;;;;;5027763;28;19913;-71
2022/06/08 07:44:30;;;;;;;;;;;21.80;56.20;;;;;;5026221;28;19964;-72
2022/06/08 07:46:56;;;;;;;;;;;21.80;56.20;;;;;;5044970;28;19959;-72
2022/06/08 07:49:37;;;;;;;;;;;21.80;56.30;;;;;;5042599;28;19959;-71
2022/06/08 07:52:05;;;;;;;;;;;21.80;56.40;;;;;;5043253;28;19996;-71
2022/06/08 07:54:31;;;;;;;;;;;21.80;56.20;;;;;;5043040;28;20411;-71
2022/06/08 07:56:57;;;;;;;;;;;21.80;56.30;;;;;;5025604;28;19999;-72
2022/06/08 07:59:24;;;;;;;;;;;21.80;56.40;;;;;;5025199;28;19913;-71
2022/06/08 08:01:49;;;;;;;;;;;21.80;56.20;;;;;;5042020;28;19917;-72
2022/06/08 08:04:16;;;;;;;;;;;21.80;56.60;;;;;;5042362;28;19938;-72
2022/06/08 08:06:41;;;;;;;;;;;21.80;56.50;;;;;;5024120;28;19919;-71
2022/06/08 08:09:13;;;;;;;;;;;21.80;56.40;;;;;;5022192;28;19913;-71
2022/06/08 08:11:39;;;;;;;;;;;21.80;56.40;;;;;;5023470;28;20356;-71
2022/06/08 08:14:04;;;;;;;;;;;21.80;56.50;;;;;;5028008;28;20000;-71
2022/06/08 08:16:31;;;;;;;;;;;21.80;56.30;;;;;;5029015;28;19913;-71
2022/06/08 08:18:57;;;;;;;;;;;21.90;56.50;;;;;;5029359;28;19917;-71
2022/06/08 08:21:24;;;;;;;;;;;21.90;57.20;;;;;;5028854;28;19919;-71
2022/06/08 08:23:49;;;;;;;;;;;21.90;57.00;;;;;;5045726;28;19920;-71
2022/06/08 08:26:14;;;;;;;;;;;21.80;56.40;;;;;;5042236;28;19913;-71
2022/06/08 08:28:40;;;;;;;;;;;21.90;56.40;;;;;;5025758;28;19920;-72
2022/06/08 08:31:05;;;;;;;;;;;21.90;56.60;;;;;;5042532;28;19917;-72
2022/06/08 08:33:31;;;;;;;;;;;21.80;56.60;;;;;;5046601;28;20326;-71
2022/06/08 08:35:56;;;;;;;;;;;21.90;56.60;;;;;;5033813;28;19920;-71
2022/06/08 08:38:22;;;;;;;;;;;21.90;56.50;;;;;;5011890;28;19951;-71
2022/06/08 08:40:54;;;;;;;;;;;21.90;56.40;;;;;;5034404;28;19914;-71
2022/06/08 08:43:21;;;;;;;;;;;21.80;56.30;;;;;;5013740;28;20453;-72
2022/06/08 08:46:05;;;;;;;;;;;21.80;56.60;;;;;;5028533;28;19916;-71
2022/06/08 08:48:36;;;;;;;;;;;21.80;56.60;;;;;;5028122;28;19923;-71
2022/06/08 08:51:04;;;;;;;;;;;21.80;56.40;;;;;;5011792;28;19959;-71
2022/06/08 08:53:32;;;;;;;;;;;21.80;56.40;;;;;;5045304;28;19916;-71
2022/06/08 08:56:03;;;;;;;;;;;21.80;56.30;;;;;;5041322;28;19988;-71
2022/06/08 08:58:30;;;;;;;;;;;21.90;56.40;;;;;;5026754;28;20072;-71
2022/06/08 09:00:56;;;;;;;;;;;21.90;56.70;;;;;;5035340;28;19917;-71
2022/06/08 09:03:30;;;;;;;;;;;21.90;57.30;;;;;;5028336;28;19995;-71
2022/06/08 09:06:16;;;;;;;;;;;21.90;56.60;;;;;;5046069;28;19913;-71
2022/06/08 09:08:43;;;;;;;;;;;21.90;56.40;;;;;;5027283;28;20372;-71
2022/06/08 09:11:29;;;;;;;;;;;21.90;57.10;;;;;;5028020;28;24482;-71
2022/06/08 09:14:04;;;;;;;;;;;21.90;56.60;;;;;;5044787;28;19963;-70
2022/06/08 09:16:32;;;;;;;;;;;21.90;57.00;;;;;;5024144;28;19948;-71
2022/06/08 09:18:57;;;;;;;;;;;21.90;56.60;;;;;;5025790;28;19913;-71
2022/06/08 09:21:33;;;;;;;;;;;21.90;56.40;;;;;;5037062;28;19958;-71
2022/06/08 09:23:59;;;;;;;;;;;21.90;56.60;;;;;;5045220;28;19916;-72
2022/06/08 09:26:25;;;;;;;;;;;21.90;56.50;;;;;;5036042;28;19919;-71
2022/06/08 09:29:09;;;;;;;;;;;21.90;56.60;;;;;;5045521;28;19912;-71
2022/06/08 09:31:35;;;;;;;;;;;21.90;56.50;;;;;;5033064;28;20446;-71
2022/06/08 09:34:24;;;;;;;;;;;21.90;56.50;;;;;;5023972;28;20405;-72
2022/06/08 09:37:06;;;;;;;;;;;21.90;56.60;;;;;;5021698;28;20316;-71
2022/06/08 09:39:31;;;;;;;;;;;21.90;56.60;;;;;;5027526;28;20610;-71
2022/06/08 09:41:57;;;;;;;;;;;21.90;56.40;;;;;;5027472;28;19916;-67
2022/06/08 09:44:28;;;;;;;;;;;21.90;56.50;;;;;;5043967;28;20430;-71
2022/06/08 09:52:54;;;;;;;;;;;21.90;56.40;;;;;;5041272;28;19920;-71
2022/06/08 09:55:35;;;;;;;;;;;21.90;56.40;;;;;;5033117;28;20002;-71
2022/06/08 09:58:01;;;;;;;;;;;21.90;56.30;;;;;;5024130;28;19993;-69
2022/06/08 10:00:34;;;;;;;;;;;21.90;56.40;;;;;;5024975;28;20414;-71
2022/06/08 10:03:11;;;;;;;;;;;21.90;56.30;;;;;;5039843;28;19921;-71
2022/06/08 10:05:56;;;;;;;;;;;21.90;56.40;;;;;;5039885;28;20485;-71
2022/06/08 10:08:22;;;;;;;;;;;21.90;56.50;;;;;;5023793;28;20298;-72
2022/06/08 10:10:53;;;;;;;;;;;22.00;56.40;;;;;;5025513;28;20008;-71
2022/06/08 10:13:26;;;;;;;;;;;22.00;56.50;;;;;;4997684;28;19998;-71
2022/06/08 10:15:52;;;;;;;;;;;21.90;56.40;;;;;;5023255;28;20300;-71
2022/06/08 10:18:27;;;;;;;;;;;21.90;56.20;;;;;;5040471;28;19971;-71
2022/06/08 10:20:55;;;;;;;;;;;21.90;56.30;;;;;;5024314;28;20000;-71
2022/06/08 10:23:25;;;;;;;;;;;21.90;56.50;;;;;;5043417;28;19917;-71
2022/06/08 10:25:53;;;;;;;;;;;22.00;56.50;;;;;;5043217;28;20062;-71
2022/06/08 10:28:22;;;;;;;;;;;21.90;56.30;;;;;;5040121;28;20387;-71
2022/06/08 10:31:00;;;;;;;;;;;21.90;56.30;;;;;;5007249;28;20008;-71
2022/06/08 10:33:27;;;;;;;;;;;22.00;56.40;;;;;;5042434;28;19968;-71
2022/06/08 10:35:55;;;;;;;;;;;22.00;55.80;;;;;;5042630;28;19948;-71
2022/06/08 10:38:34;;;;;;;;;;;21.90;56.30;;;;;;5029471;28;19919;-71
2022/06/08 10:40:59;;;;;;;;;;;22.00;56.40;;;;;;5009842;28;20315;-70
2022/06/08 10:43:31;;;;;;;;;;;21.90;56.30;;;;;;5043970;28;19920;-71
2022/06/08 10:46:04;;;;;;;;;;;22.00;56.40;;;;;;5042725;28;19951;-71
2022/06/08 10:48:34;;;;;;;;;;;22.00;56.40;;;;;;5028834;28;19924;-71
2022/06/08 10:51:11;;;;;;;;;;;22.00;56.40;;;;;;5026376;28;20844;-71
2022/06/08 10:56:26;;;;;;;;;;;22.00;56.40;;;;;;5022819;28;19920;-71
2022/06/08 10:58:57;;;;;;;;;;;22.00;56.40;;;;;;5042700;28;19984;-71
2022/06/08 11:01:41;;;;;;;;;;;22.00;56.50;;;;;;5026182;28;19978;-71
2022/06/08 11:04:11;;;;;;;;;;;22.00;56.40;;;;;;5023909;28;19913;-70
2022/06/08 11:06:45;;;;;;;;;;;22.00;56.40;;;;;;4996360;28;20402;-71
2022/06/08 11:09:18;;;;;;;;;;;22.00;56.40;;;;;;5022694;28;19913;-71
2022/06/08 11:11:44;;;;;;;;;;;22.00;56.40;;;;;;5023791;28;20354;-71
2022/06/08 11:14:25;;;;;;;;;;;22.00;56.20;;;;;;5042541;28;19931;-70
2022/06/08 11:16:51;;;;;;;;;;;22.00;56.20;;;;;;5042518;28;19917;-72
2022/06/08 11:19:17;;;;;;;;;;;22.00;56.20;;;;;;5026297;28;19917;-71
2022/06/08 11:21:50;;;;;;;;;;;22.00;56.30;;;;;;5025724;28;20440;-71
2022/06/08 11:24:35;;;;;;;;;;;22.00;56.30;;;;;;5022271;28;19917;-71
2022/06/08 11:27:00;;;;;;;;;;;22.10;56.30;;;;;;5005431;28;20000;-71
2022/06/08 11:29:34;;;;;;;;;;;22.10;56.20;;;;;;5042620;28;20007;-71
2022/06/08 11:32:00;;;;;;;;;;;22.10;56.30;;;;;;5043525;28;20395;-69
2022/06/08 11:34:38;;;;;;;;;;;22.10;56.30;;;;;;5026635;28;19913;-71
2022/06/08 11:37:22;;;;;;;;;;;22.10;56.20;;;;;;5025480;28;19913;-71
2022/06/08 11:39:53;;;;;;;;;;;22.10;56.20;;;;;;5012583;28;19914;-71
2022/06/08 11:42:24;;;;;;;;;;;22.10;56.10;;;;;;5021396;28;20532;-66
2022/06/08 11:44:51;;;;;;;;;;;22.10;56.10;;;;;;5005536;28;19917;-71
2022/06/08 11:47:18;;;;;;;;;;;22.10;56.10;;;;;;5022658;28;20426;-71
2022/06/08 11:49:44;;;;;;;;;;;22.10;56.20;;;;;;5036851;28;19913;-72
2022/06/08 11:52:39;;;;;;;;;;;22.10;56.10;;;;;;5038694;28;20390;-71
2022/06/08 11:55:24;;;;;;;;;;;22.10;56.20;;;;;;5013521;28;19960;-71
2022/06/08 11:58:00;;;;;;;;;;;22.10;56.70;;;;;;5024830;28;20349;-71
2022/06/08 12:00:36;;;;;;;;;;;22.10;56.20;;;;;;5025288;28;19912;-71
2022/06/08 12:03:25;;;;;;;;;;;22.10;56.20;;;;;;5022424;28;19921;-71
2022/06/08 12:05:53;;;;;;;;;;;22.10;56.20;;;;;;5020334;28;19941;-71
2022/06/08 12:08:29;;;;;;;;;;;22.10;56.10;;;;;;5026242;28;19917;-67
2022/06/08 12:10:54;;;;;;;;;;;22.10;56.10;;;;;;5024142;28;20523;-71
2022/06/08 12:13:21;;;;;;;;;;;22.10;56.10;;;;;;5025380;28;19943;-71
2022/06/08 12:15:48;;;;;;;;;;;22.10;56.00;;;;;;5025350;28;19912;-69
2022/06/08 12:18:25;;;;;;;;;;;22.20;55.80;;;;;;5042119;28;19917;-71
2022/06/08 12:21:01;;;;;;;;;;;22.20;55.90;;;;;;5042799;28;19913;-71
2022/06/08 12:23:36;;;;;;;;;;;22.20;55.90;;;;;;5021672;28;19914;-70
2022/06/08 12:26:02;;;;;;;;;;;22.20;55.80;;;;;;5023882;28;20311;-71
2022/06/08 12:28:28;;;;;;;;;;;22.20;55.80;;;;;;5026843;28;19913;-69
2022/06/08 12:30:56;;;;;;;;;;;22.20;55.80;;;;;;5025833;28;19917;-67
2022/06/08 12:33:24;;;;;;;;;;;22.20;55.80;;;;;;5023985;28;19966;-71
2022/06/08 12:35:56;;;;;;;;;;;22.20;55.80;;;;;;5022207;28;19914;-71
2022/06/08 12:38:21;;;;;;;;;;;22.20;55.80;;;;;;5023510;28;19948;-72
2022/06/08 12:40:56;;;;;;;;;;;22.20;55.80;;;;;;5025166;28;19940;-70
2022/06/08 12:43:22;;;;;;;;;;;22.20;55.80;;;;;;5031914;28;20425;-71
2022/06/08 12:46:03;;;;;;;;;;;22.20;55.80;;;;;;5021960;28;19925;-71
2022/06/08 12:48:32;;;;;;;;;;;22.20;55.90;;;;;;5022663;28;19913;-71
2022/06/08 12:50:58;;;;;;;;;;;22.20;55.80;;;;;;5025281;28;19944;-71
2022/06/08 12:53:23;;;;;;;;;;;22.20;55.80;;;;;;5008309;28;19951;-71
2022/06/08 12:55:49;;;;;;;;;;;22.30;55.80;;;;;;5042516;28;19963;-71
2022/06/08 12:58:15;;;;;;;;;;;22.30;55.80;;;;;;5026496;28;19970;-71
2022/06/08 13:00:48;;;;;;;;;;;22.20;55.70;;;;;;5027758;28;19940;-71
2022/06/08 13:03:15;;;;;;;;;;;22.20;55.70;;;;;;5044571;28;20011;-70
2022/06/08 13:05:41;;;;;;;;;;;22.30;55.80;;;;;;5040968;28;20008;-71
2022/06/08 13:08:06;;;;;;;;;;;22.20;55.70;;;;;;5024489;28;19917;-71
2022/06/08 13:10:32;;;;;;;;;;;22.20;55.60;;;;;;5022093;28;19917;-71
2022/06/08 13:13:03;;;;;;;;;;;22.20;55.80;;;;;;5043997;28;19998;-71
2022/06/08 13:15:30;;;;;;;;;;;22.30;55.80;;;;;;5034831;28;19920;-71
2022/06/08 13:17:56;;;;;;;;;;;22.30;55.80;;;;;;5027735;28;19913;-71
2022/06/08 13:20:23;;;;;;;;;;;22.20;55.70;;;;;;5034124;28;20007;-72
2022/06/08 13:22:49;;;;;;;;;;;22.30;55.90;;;;;;5025789;28;19913;-71
2022/06/08 13:25:15;;;;;;;;;;;22.30;55.80;;;;;;5027196;28;19935;-70
2022/06/08 13:27:40;;;;;;;;;;;22.30;55.80;;;;;;5027541;28;19921;-71
2022/06/08 13:30:06;;;;;;;;;;;22.30;55.80;;;;;;5037407;28;19914;-71
2022/06/08 13:32:31;;;;;;;;;;;22.30;55.70;;;;;;5025468;28;19913;-71
2022/06/08 13:34:57;;;;;;;;;;;22.30;55.90;;;;;;5031685;28;19989;-71
2022/06/08 13:37:31;;;;;;;;;;;22.30;55.90;;;;;;5027637;28;19913;-71
2022/06/08 13:39:57;;;;;;;;;;;22.30;55.80;;;;;;5027263;28;19920;-71
2022/06/08 13:42:23;;;;;;;;;;;22.30;55.80;;;;;;5028108;28;20416;-71
2022/06/08 13:44:49;;;;;;;;;;;22.30;55.80;;;;;;5026892;28;20547;-71
2022/06/08 13:47:16;;;;;;;;;;;22.30;55.80;;;;;;5027427;28;19917;-71
2022/06/08 13:49:44;;;;;;;;;;;22.30;55.80;;;;;;5024951;28;20000;-71
2022/06/08 13:52:13;;;;;;;;;;;22.30;55.80;;;;;;5023813;28;19924;-71
2022/06/08 13:54:42;;;;;;;;;;;22.30;55.80;;;;;;5024376;28;19993;-71
2022/06/08 13:57:08;;;;;;;;;;;22.30;55.80;;;;;;5027153;28;20478;-71
2022/06/08 13:59:34;;;;;;;;;;;22.30;55.90;;;;;;5044666;28;19925;-72
2022/06/08 14:02:00;;;;;;;;;;;22.30;55.90;;;;;;5026840;28;20342;-72
2022/06/08 14:04:27;;;;;;;;;;;22.30;55.80;;;;;;5043401;28;20340;-71
2022/06/08 14:15:05;;;;;;;;;;;22.30;55.70;;;;;;5043630;28;19959;-71
2022/06/08 14:17:31;;;;;;;;;;;22.40;55.70;;;;;;5027060;28;20489;-71
2022/06/08 14:19:57;;;;;;;;;;;22.30;55.60;;;;;;5027298;28;19916;-71
2022/06/08 14:22:27;;;;;;;;;;;22.30;55.70;;;;;;5027362;28;19917;-71
2022/06/08 14:24:54;;;;;;;;;;;22.30;55.70;;;;;;5017021;28;19913;-71
2022/06/08 14:27:19;;;;;;;;;;;22.30;55.70;;;;;;5040104;28;19948;-71
2022/06/08 14:29:45;;;;;;;;;;;22.30;55.60;;;;;;5006748;28;19920;-71
2022/06/08 14:32:21;;;;;;;;;;;22.30;55.70;;;;;;5039505;28;19916;-71
2022/06/08 14:34:47;;;;;;;;;;;22.40;55.70;;;;;;5043205;28;20383;-71
2022/06/08 14:37:15;;;;;;;;;;;22.40;55.70;;;;;;5043651;28;21333;-71
2022/06/08 14:39:41;;;;;;;;;;;22.40;55.70;;;;;;5026512;28;19920;-71
2022/06/08 14:42:06;;;;;;;;;;;22.40;56.30;;;;;;5026625;28;19913;-71
2022/06/08 14:44:32;;;;;;;;;;;22.40;55.70;;;;;;5043766;28;19913;-71
2022/06/08 14:47:01;;;;;;;;;;;22.30;56.30;;;;;;5043387;28;19924;-71